createdAt,value
2023-06-11T00:00:36.748Z,74.39
2023-06-11T00:03:05.695Z,74.46
2023-06-11T00:05:33.457Z,74.50
2023-06-11T00:08:02.157Z,74.68
2023-06-11T00:10:29.672Z,74.59
2023-06-11T00:12:57.070Z,74.67
2023-06-11T00:15:24.545Z,75.08
2023-06-11T00:17:52.068Z,75.20
2023-06-11T00:20:19.527Z,75.02
2023-06-11T00:22:46.936Z,74.83
2023-06-11T00:25:14.505Z,74.73
2023-06-11T00:27:42.121Z,74.39
2023-06-11T00:30:09.833Z,74.53
2023-06-11T00:32:37.325Z,74.77
2023-06-11T00:35:08.115Z,75.02
2023-06-11T00:37:37.080Z,75.31
2023-06-11T00:40:05.182Z,75.20
2023-06-11T00:42:34.951Z,75.32
2023-06-11T00:45:04.954Z,75.72
2023-06-11T00:47:33.195Z,75.67
2023-06-11T00:50:01.761Z,75.79
2023-06-11T00:52:29.364Z,76.04
2023-06-11T00:54:59.447Z,75.99
2023-06-11T00:57:27.525Z,76.00
2023-06-11T00:59:55.675Z,76.25
2023-06-11T01:02:40.222Z,76.35
2023-06-11T01:05:09.096Z,76.52
2023-06-11T01:07:37.528Z,76.47
2023-06-11T01:10:06.053Z,76.49
2023-06-11T01:12:36.723Z,76.57
2023-06-11T01:15:04.469Z,76.38
2023-06-11T01:17:42.477Z,76.52
2023-06-11T01:20:41.055Z,76.63
2023-06-11T01:23:32.735Z,76.56
2023-06-11T01:26:13.804Z,77.09
2023-06-11T01:28:42.402Z,77.22
2023-06-11T01:31:12.729Z,77.43
2023-06-11T01:33:40.203Z,77.48
2023-06-11T01:36:12.100Z,77.53
2023-06-11T01:38:43.631Z,77.70
2023-06-11T01:41:31.511Z,78.00
2023-06-11T01:43:59.371Z,78.42
2023-06-11T01:46:27.563Z,78.41
2023-06-11T01:48:55.342Z,78.45
2023-06-11T01:51:23.278Z,78.34
2023-06-11T01:53:50.944Z,78.49
2023-06-11T01:56:18.384Z,78.62
2023-06-11T01:58:46.823Z,78.53
2023-06-11T02:01:14.787Z,78.31
2023-06-11T02:03:42.544Z,78.23
2023-06-11T02:06:10.068Z,77.99
2023-06-11T02:08:37.639Z,77.88
2023-06-11T02:11:05.167Z,78.11
2023-06-11T02:13:32.696Z,78.15
2023-06-11T02:16:00.350Z,78.48
2023-06-11T02:18:27.878Z,78.38
2023-06-11T02:20:55.549Z,78.32
2023-06-11T02:23:23.087Z,78.46
2023-06-11T02:25:50.743Z,78.47
2023-06-11T02:28:18.421Z,78.42
2023-06-11T02:30:45.939Z,78.14
2023-06-11T02:33:13.414Z,78.13
2023-06-11T02:35:40.833Z,78.26
2023-06-11T02:38:08.353Z,78.31
2023-06-11T02:40:35.810Z,78.10
2023-06-11T02:43:03.289Z,78.10
2023-06-11T02:45:30.833Z,78.27
2023-06-11T02:47:58.327Z,78.26
2023-06-11T02:50:25.812Z,78.20
2023-06-11T02:52:53.317Z,78.15
2023-06-11T02:55:20.799Z,78.06
2023-06-11T02:57:48.217Z,78.07
2023-06-11T03:00:15.885Z,78.20
2023-06-11T03:02:43.546Z,78.06
2023-06-11T03:05:13.926Z,78.00
2023-06-11T03:07:41.938Z,78.18
2023-06-11T03:10:10.381Z,78.08
2023-06-11T03:12:37.881Z,77.80
2023-06-11T03:15:06.959Z,77.59
2023-06-11T03:17:34.428Z,77.42
2023-06-11T03:20:01.991Z,77.44
2023-06-11T03:22:29.549Z,77.13
2023-06-11T03:24:57.094Z,76.74
2023-06-11T03:27:31.498Z,76.67
2023-06-11T03:29:58.886Z,77.00
2023-06-11T03:32:26.795Z,77.23
2023-06-11T03:34:54.467Z,77.50
2023-06-11T03:37:23.125Z,77.54
2023-06-11T03:39:52.800Z,77.62
2023-06-11T03:42:20.307Z,77.39
2023-06-11T03:44:48.001Z,77.32
2023-06-11T03:47:16.040Z,77.16
2023-06-11T03:49:44.587Z,77.24
2023-06-11T03:52:12.120Z,77.23
2023-06-11T03:54:39.700Z,77.03
2023-06-11T03:57:07.478Z,76.85
2023-06-11T03:59:35.077Z,76.70
2023-06-11T04:02:02.604Z,76.67
2023-06-11T04:04:30.690Z,76.63
2023-06-11T04:06:58.317Z,76.50
2023-06-11T04:09:27.622Z,76.45
2023-06-11T04:11:55.030Z,76.19
2023-06-11T04:14:22.594Z,76.22
2023-06-11T04:16:50.619Z,76.28
2023-06-11T04:19:19.467Z,76.55
2023-06-11T04:21:47.848Z,76.48
2023-06-11T04:24:15.283Z,75.97
2023-06-11T04:26:44.475Z,75.88
2023-06-11T04:29:14.561Z,75.85
2023-06-11T04:31:43.235Z,75.65
2023-06-11T04:34:12.061Z,75.58
2023-06-11T04:39:05.188Z,75.76
2023-06-11T04:41:38.804Z,75.64
2023-06-11T04:44:07.132Z,75.91
2023-06-11T04:46:35.687Z,76.30
2023-06-11T04:49:08.176Z,76.70
2023-06-11T04:51:42.020Z,76.88
2023-06-11T04:54:10.494Z,76.96
2023-06-11T04:56:44.506Z,77.20
2023-06-11T04:59:12.286Z,76.97
2023-06-11T05:01:48.064Z,76.88
2023-06-11T05:04:18.725Z,76.86
2023-06-11T05:06:48.542Z,77.03
2023-06-11T05:09:22.358Z,77.04
2023-06-11T05:11:51.844Z,76.75
2023-06-11T05:14:20.253Z,76.81
2023-06-11T05:16:51.762Z,77.27
2023-06-11T05:19:19.498Z,77.77
2023-06-11T05:21:50.129Z,77.81
2023-06-11T05:24:21.732Z,77.98
2023-06-11T05:26:56.618Z,78.03
2023-06-11T05:29:25.983Z,78.09
2023-06-11T05:31:54.364Z,78.15
2023-06-11T05:34:22.276Z,78.36
2023-06-11T05:36:56.738Z,78.23
2023-06-11T05:39:24.415Z,78.10
2023-06-11T05:41:52.156Z,78.10
2023-06-11T05:44:22.753Z,77.89
2023-06-11T05:46:51.409Z,78.07
2023-06-11T05:49:19.324Z,78.27
2023-06-11T05:51:47.101Z,78.19
2023-06-11T05:54:14.889Z,78.09
2023-06-11T05:56:42.326Z,78.39
2023-06-11T05:59:10.500Z,78.47
2023-06-11T06:01:38.357Z,78.42
2023-06-11T06:04:05.918Z,78.36
2023-06-11T06:06:34.192Z,78.46
2023-06-11T06:09:02.172Z,78.65
2023-06-11T06:11:31.228Z,78.75
2023-06-11T06:13:59.368Z,78.79
2023-06-11T06:16:28.851Z,78.77
2023-06-11T06:25:49.175Z,78.75
2023-06-11T06:28:18.520Z,78.78
2023-06-11T06:30:46.174Z,78.78
2023-06-11T06:33:14.555Z,78.75
2023-06-11T06:35:42.409Z,78.47
2023-06-11T06:38:10.110Z,78.46
2023-06-11T06:40:38.132Z,78.34
2023-06-11T06:43:06.181Z,77.87
2023-06-11T06:45:36.219Z,77.79
2023-06-11T06:48:10.807Z,77.88
2023-06-11T06:50:38.762Z,77.71
2023-06-11T06:53:08.219Z,77.45
2023-06-11T06:55:36.645Z,77.18
2023-06-11T06:58:06.426Z,77.06
2023-06-11T07:00:34.512Z,77.10
2023-06-11T07:03:02.258Z,77.20
2023-06-11T07:05:30.266Z,76.80
2023-06-11T07:07:59.103Z,76.61
2023-06-11T07:10:27.850Z,76.57
2023-06-11T07:12:56.617Z,76.19
2023-06-11T07:15:26.426Z,75.85
2023-06-11T07:17:54.074Z,75.72
2023-06-11T07:20:21.652Z,75.55
2023-06-11T07:22:49.248Z,75.48
2023-06-11T07:25:17.753Z,75.21
2023-06-11T07:27:45.309Z,75.30
2023-06-11T07:30:13.638Z,75.21
2023-06-11T07:32:42.684Z,75.13
2023-06-11T07:35:10.516Z,75.24
2023-06-11T07:37:37.994Z,74.98
2023-06-11T07:40:06.529Z,75.15
2023-06-11T07:42:33.997Z,75.13
2023-06-11T07:45:01.400Z,75.18
2023-06-11T07:47:28.875Z,75.13
2023-06-11T07:49:56.591Z,75.02
2023-06-11T07:52:24.064Z,74.77
2023-06-11T07:54:51.652Z,74.58
2023-06-11T07:57:19.086Z,74.28
2023-06-11T07:59:46.472Z,74.02
2023-06-11T08:02:14.214Z,74.19
2023-06-11T08:04:41.853Z,73.84
2023-06-11T08:07:09.350Z,74.05
2023-06-11T08:09:37.246Z,74.40
2023-06-11T08:12:09.687Z,74.62
2023-06-11T08:14:37.198Z,74.56
2023-06-11T08:17:04.859Z,74.39
2023-06-11T08:19:32.478Z,74.40
2023-06-11T08:22:01.265Z,74.51
2023-06-11T08:24:28.735Z,74.80
2023-06-11T08:26:56.725Z,74.62
2023-06-11T08:29:24.183Z,74.48
2023-06-11T08:31:51.925Z,74.30
2023-06-11T08:34:19.463Z,74.30
2023-06-11T08:36:47.112Z,74.32
2023-06-11T08:39:14.699Z,74.02
2023-06-11T08:41:42.271Z,73.84
2023-06-11T08:44:09.802Z,73.92
2023-06-11T08:46:37.477Z,73.68
2023-06-11T08:49:08.471Z,73.18
2023-06-11T08:51:38.336Z,72.98
2023-06-11T08:54:11.685Z,72.83
2023-06-11T08:56:39.528Z,72.93
2023-06-11T08:59:07.423Z,72.86
2023-06-11T09:01:35.092Z,72.73
2023-06-11T09:04:02.959Z,73.38
2023-06-11T09:06:31.165Z,73.47
2023-06-11T09:09:06.681Z,73.46
2023-06-11T09:11:38.073Z,73.16
2023-06-11T09:14:06.793Z,72.84
2023-06-11T09:16:41.292Z,72.46
2023-06-11T09:19:20.984Z,72.23
2023-06-11T09:21:52.756Z,71.78
2023-06-11T09:24:21.185Z,71.66
2023-06-11T09:26:57.604Z,71.45
2023-06-11T09:29:26.471Z,71.29
2023-06-11T09:32:16.304Z,70.99
2023-06-11T09:35:00.463Z,70.66
2023-06-11T09:37:28.122Z,70.57
2023-06-11T09:39:55.541Z,70.36
2023-06-11T09:42:28.242Z,70.29
2023-06-11T09:45:00.420Z,70.18
2023-06-11T09:47:34.498Z,70.18
2023-06-11T09:50:02.876Z,70.26
2023-06-11T09:52:30.736Z,69.93
2023-06-11T09:54:58.448Z,69.62
2023-06-11T09:57:25.961Z,69.17
2023-06-11T09:59:53.453Z,68.73
2023-06-11T10:02:20.956Z,67.93
2023-06-11T10:04:48.527Z,67.09
2023-06-11T10:07:16.074Z,67.26
2023-06-11T10:09:43.511Z,67.22
2023-06-11T10:12:16.252Z,67.06
2023-06-11T10:14:52.541Z,65.93
2023-06-11T10:17:22.609Z,65.82
2023-06-11T10:19:50.315Z,65.56
2023-06-11T10:22:36.741Z,65.78
2023-06-11T10:25:05.093Z,65.91
2023-06-11T10:27:37.243Z,66.12
2023-06-11T10:30:07.790Z,66.05
2023-06-11T10:32:35.546Z,65.29
2023-06-11T10:35:05.896Z,65.76
2023-06-11T10:37:38.902Z,65.88
2023-06-11T10:40:07.358Z,65.30
2023-06-11T10:42:39.612Z,65.27
2023-06-11T10:45:09.287Z,65.66
2023-06-11T10:47:44.496Z,65.05
2023-06-11T10:50:13.774Z,64.48
2023-06-11T10:52:59.333Z,64.33
2023-06-11T10:55:30.642Z,63.81
2023-06-11T10:57:58.580Z,63.37
2023-06-11T11:00:29.763Z,62.81
2023-06-11T11:03:01.086Z,64.76
2023-06-11T11:05:32.214Z,66.14
2023-06-11T11:08:02.800Z,67.73
2023-06-11T11:10:30.628Z,69.39
2023-06-11T11:12:58.248Z,70.15
2023-06-11T11:15:25.659Z,70.34
2023-06-11T11:17:53.091Z,70.55
2023-06-11T11:20:21.307Z,71.23
2023-06-11T11:22:53.583Z,72.11
2023-06-11T11:25:22.274Z,72.42
2023-06-11T11:27:49.984Z,72.61
2023-06-11T11:30:17.919Z,73.32
2023-06-11T11:32:45.682Z,73.91
2023-06-11T11:35:17.194Z,74.43
2023-06-11T11:37:52.414Z,74.81
2023-06-11T11:40:20.834Z,74.98
2023-06-11T11:42:48.329Z,75.53
2023-06-11T11:45:16.036Z,76.13
2023-06-11T11:47:54.074Z,76.17
2023-06-11T11:50:29.273Z,75.85
2023-06-11T11:53:07.031Z,76.04
2023-06-11T11:55:39.972Z,76.10
2023-06-11T11:58:16.700Z,76.22
2023-06-11T12:00:54.878Z,76.18
2023-06-11T12:03:23.155Z,76.80
2023-06-11T12:06:00.142Z,76.84
2023-06-11T12:08:29.458Z,75.71
2023-06-11T12:10:57.684Z,76.04
2023-06-11T12:13:25.589Z,76.66
2023-06-11T12:15:53.196Z,76.75
2023-06-11T12:18:21.189Z,77.25
2023-06-11T12:20:49.106Z,77.45
2023-06-11T12:23:16.865Z,77.71
2023-06-11T12:25:44.681Z,78.29
2023-06-11T12:28:12.358Z,78.56
2023-06-11T12:30:41.741Z,78.99
2023-06-11T12:33:09.309Z,79.51
2023-06-11T12:35:37.495Z,79.90
2023-06-11T12:38:06.313Z,80.10
2023-06-11T12:40:33.861Z,79.94
2023-06-11T12:43:02.075Z,80.00
2023-06-11T12:45:31.646Z,80.76
2023-06-11T12:47:59.349Z,81.13
2023-06-11T12:50:27.841Z,80.66
2023-06-11T12:52:56.384Z,80.53
2023-06-11T12:55:25.866Z,81.01
2023-06-11T12:57:53.454Z,81.22
2023-06-11T13:00:23.312Z,81.47
2023-06-11T13:02:51.060Z,81.47
2023-06-11T13:05:18.918Z,82.05
2023-06-11T13:07:46.599Z,82.59
2023-06-11T13:10:14.433Z,82.47
2023-06-11T13:12:42.127Z,82.46
2023-06-11T13:15:10.560Z,81.95
2023-06-11T13:17:38.019Z,81.43
2023-06-11T13:20:06.418Z,80.95
2023-06-11T13:22:33.793Z,79.98
2023-06-11T13:25:01.417Z,79.84
2023-06-11T13:27:28.826Z,79.65
2023-06-11T13:29:57.048Z,80.05
2023-06-11T13:32:24.603Z,79.61
2023-06-11T13:34:52.724Z,79.64
2023-06-11T13:37:20.647Z,80.19
2023-06-11T13:39:48.103Z,79.98
2023-06-11T13:42:15.594Z,80.39
2023-06-11T13:44:46.774Z,80.36
2023-06-11T13:47:14.411Z,80.44
2023-06-11T13:49:44.367Z,80.80
2023-06-11T13:52:11.746Z,80.46
2023-06-11T13:54:41.505Z,80.26
2023-06-11T13:57:09.834Z,80.48
2023-06-11T13:59:38.453Z,79.75
2023-06-11T14:02:06.078Z,79.95
2023-06-11T14:04:33.643Z,79.76
2023-06-11T14:07:02.233Z,79.92
2023-06-11T14:09:29.933Z,80.41
2023-06-11T14:11:57.478Z,80.71
2023-06-11T14:14:25.806Z,80.51
2023-06-11T14:16:53.297Z,79.79
2023-06-11T14:19:21.045Z,80.02
2023-06-11T14:21:48.452Z,80.20
2023-06-11T14:24:15.886Z,80.11
2023-06-11T14:26:43.296Z,80.14
2023-06-11T14:29:11.228Z,80.00
2023-06-11T14:31:38.656Z,80.83
2023-06-11T14:34:06.151Z,80.80
2023-06-11T14:36:35.297Z,80.63
2023-06-11T14:39:02.708Z,80.30
2023-06-11T14:41:30.172Z,80.46
2023-06-11T14:43:57.655Z,80.67
2023-06-11T14:46:25.110Z,81.21
2023-06-11T14:48:52.711Z,81.02
2023-06-11T14:51:20.219Z,81.19
2023-06-11T14:53:47.621Z,80.51
2023-06-11T14:56:15.103Z,80.11
2023-06-11T14:58:42.501Z,80.06
2023-06-11T15:01:10.725Z,80.66
2023-06-11T15:03:38.245Z,81.26
2023-06-11T15:06:06.539Z,81.62
2023-06-11T15:08:34.375Z,81.54
2023-06-11T15:11:07.092Z,81.32
2023-06-11T15:13:34.846Z,81.45
2023-06-11T15:16:02.340Z,81.46
2023-06-11T15:18:29.870Z,81.75
2023-06-11T15:20:57.438Z,81.83
2023-06-11T15:23:25.041Z,81.96
2023-06-11T15:25:53.128Z,82.05
2023-06-11T15:28:21.673Z,81.81
2023-06-11T15:30:49.124Z,81.69
2023-06-11T15:33:16.756Z,81.49
2023-06-11T15:35:44.661Z,81.37
2023-06-11T15:38:12.053Z,81.73
2023-06-11T15:40:39.437Z,81.88
2023-06-11T15:43:06.959Z,81.49
2023-06-11T15:45:39.249Z,81.09
2023-06-11T15:48:06.734Z,81.05
2023-06-11T15:50:34.140Z,81.34
2023-06-11T15:53:01.587Z,81.32
2023-06-11T15:55:30.442Z,80.28
2023-06-11T15:57:57.946Z,79.91
2023-06-11T16:00:25.548Z,80.13
2023-06-11T16:02:52.959Z,80.11
2023-06-11T16:05:20.466Z,80.41
2023-06-11T16:07:47.902Z,80.30
2023-06-11T16:10:15.796Z,79.89
2023-06-11T16:12:45.903Z,79.80
2023-06-11T16:15:13.563Z,80.35
2023-06-11T16:17:45.497Z,80.69
2023-06-11T16:20:15.404Z,80.42
2023-06-11T16:22:43.407Z,80.48
2023-06-11T16:25:11.970Z,80.25
2023-06-11T16:27:40.181Z,79.97
2023-06-11T16:30:08.961Z,80.16
2023-06-11T16:32:39.698Z,80.26
2023-06-11T16:35:08.233Z,80.19
2023-06-11T16:37:35.986Z,80.21
2023-06-11T16:40:08.191Z,80.19
2023-06-11T16:42:35.724Z,80.14
2023-06-11T16:45:03.276Z,80.24
2023-06-11T16:47:30.734Z,80.19
2023-06-11T16:49:59.888Z,79.89
2023-06-11T16:52:29.883Z,79.47
2023-06-11T16:56:44.977Z,80.10
2023-06-11T16:59:12.580Z,80.08
2023-06-11T17:01:40.109Z,80.09
2023-06-11T17:04:08.595Z,79.78
2023-06-11T17:06:36.937Z,79.53
2023-06-11T17:09:04.940Z,79.18
2023-06-11T17:11:32.546Z,79.45
2023-06-11T17:14:00.571Z,79.65
2023-06-11T17:16:31.565Z,79.26
2023-06-11T17:18:59.115Z,79.13
2023-06-11T17:21:26.774Z,79.27
2023-06-11T17:23:58.405Z,79.34
2023-06-11T17:26:28.432Z,79.58
2023-06-11T17:28:55.882Z,79.52
2023-06-11T17:31:23.633Z,79.61
2023-06-11T17:33:51.141Z,79.65
2023-06-11T17:36:18.573Z,80.20
2023-06-11T17:38:46.204Z,80.12
2023-06-11T17:41:14.233Z,79.87
2023-06-11T17:43:41.854Z,79.97
2023-06-11T17:46:13.921Z,80.47
2023-06-11T17:48:42.034Z,80.55
2023-06-11T17:51:09.739Z,80.78
2023-06-11T17:53:37.142Z,80.86
2023-06-11T17:56:05.376Z,80.73
2023-06-11T17:58:34.919Z,80.61
2023-06-11T18:01:04.804Z,80.45
2023-06-11T18:03:33.171Z,80.42
2023-06-11T18:06:03.370Z,80.52
2023-06-11T18:08:30.772Z,80.66
2023-06-11T18:10:58.501Z,81.00
2023-06-11T18:13:25.942Z,81.09
2023-06-11T18:15:53.440Z,80.78
2023-06-11T18:18:21.332Z,80.92
2023-06-11T18:20:51.190Z,81.06
2023-06-11T18:23:19.679Z,81.56
2023-06-11T18:25:47.521Z,81.68
2023-06-11T18:28:15.188Z,81.53
2023-06-11T18:30:42.769Z,81.27
2023-06-11T18:33:10.271Z,81.22
2023-06-11T18:35:38.321Z,81.10
2023-06-11T18:38:05.872Z,81.38
2023-06-11T18:40:33.369Z,81.47
2023-06-11T18:43:02.880Z,81.42
2023-06-11T18:45:31.174Z,81.49
2023-06-11T18:47:58.800Z,81.40
2023-06-11T18:50:27.835Z,81.63
2023-06-11T18:52:55.489Z,81.48
2023-06-11T18:55:23.380Z,81.24
2023-06-11T18:57:51.574Z,81.29
2023-06-11T19:00:19.144Z,81.60
2023-06-11T19:02:47.054Z,81.62
2023-06-11T19:05:14.729Z,81.12
2023-06-11T19:07:42.167Z,80.70
2023-06-11T19:10:13.598Z,80.65
2023-06-11T19:12:41.294Z,80.67
2023-06-11T19:15:09.659Z,81.00
2023-06-11T19:17:37.443Z,81.19
2023-06-11T19:20:06.997Z,81.23
2023-06-11T19:22:34.854Z,80.93
2023-06-11T19:25:02.327Z,80.99
2023-06-11T19:27:30.558Z,81.20
2023-06-11T19:29:57.988Z,81.13
2023-06-11T19:32:25.436Z,80.81
2023-06-11T19:34:52.933Z,80.54
2023-06-11T19:37:20.394Z,80.65
2023-06-11T19:39:47.818Z,80.90
2023-06-11T19:42:15.279Z,81.15
2023-06-11T19:44:43.393Z,81.18
2023-06-11T19:47:10.917Z,81.31
2023-06-11T19:49:38.550Z,81.52
2023-06-11T19:52:06.584Z,81.62
2023-06-11T19:54:49.900Z,81.40
2023-06-11T19:57:19.996Z,80.78
2023-06-11T19:59:48.184Z,80.69
2023-06-11T20:02:15.948Z,80.50
2023-06-11T20:04:43.441Z,80.78
2023-06-11T20:07:10.838Z,80.78
2023-06-11T20:09:38.335Z,80.68
2023-06-11T20:12:08.627Z,80.66
2023-06-11T20:14:36.635Z,80.72
2023-06-11T20:17:04.893Z,80.87
2023-06-11T20:19:35.130Z,80.71
2023-06-11T20:22:04.259Z,80.25
2023-06-11T20:24:32.920Z,79.80
2023-06-11T20:27:00.643Z,79.80
2023-06-11T20:29:28.383Z,79.54
2023-06-11T20:31:55.935Z,79.70
2023-06-11T20:34:23.425Z,79.68
2023-06-11T20:36:51.007Z,79.42
2023-06-11T20:39:18.638Z,79.45
2023-06-11T20:41:46.127Z,79.50
2023-06-11T20:44:13.847Z,79.34
2023-06-11T20:46:41.501Z,79.19
2023-06-11T20:49:09.843Z,78.79
2023-06-11T20:51:39.371Z,78.76
2023-06-11T20:54:06.778Z,78.83
2023-06-11T20:56:34.334Z,79.17
2023-06-11T20:59:02.497Z,79.33
2023-06-11T21:01:30.541Z,79.03
2023-06-11T21:03:58.070Z,79.22
2023-06-11T21:06:25.623Z,79.83
2023-06-11T21:08:53.022Z,80.08
2023-06-11T21:11:20.439Z,79.97
2023-06-11T21:13:56.599Z,79.65
2023-06-11T21:16:31.622Z,79.44
2023-06-11T21:19:00.107Z,79.51
2023-06-11T21:21:27.624Z,79.82
2023-06-11T21:23:55.251Z,79.90
2023-06-11T21:26:22.693Z,79.57
2023-06-11T21:28:50.091Z,78.77
2023-06-11T21:31:17.805Z,78.77
2023-06-11T21:33:45.274Z,79.04
2023-06-11T21:36:12.738Z,79.05
2023-06-11T21:38:40.164Z,79.28
2023-06-11T21:41:07.582Z,79.34
2023-06-11T21:43:34.973Z,79.47
2023-06-11T21:46:02.460Z,79.54
2023-06-11T21:48:29.837Z,79.31
2023-06-11T21:50:57.768Z,78.97
2023-06-11T21:53:25.268Z,79.03
2023-06-11T21:55:52.726Z,79.01
2023-06-11T21:58:20.057Z,79.44
2023-06-11T22:00:47.499Z,79.37
2023-06-11T22:03:19.903Z,79.18
2023-06-11T22:05:47.461Z,78.87
2023-06-11T22:08:15.149Z,79.07
2023-06-11T22:10:42.541Z,78.85
2023-06-11T22:13:09.912Z,79.02
2023-06-11T22:15:37.331Z,79.03
2023-06-11T22:18:05.374Z,78.99
2023-06-11T22:20:33.614Z,79.20
2023-06-11T22:23:01.234Z,79.37
2023-06-11T22:25:28.721Z,79.55
2023-06-11T22:27:56.423Z,79.81
2023-06-11T22:30:24.112Z,80.11
2023-06-11T22:32:51.567Z,80.19
2023-06-11T22:35:19.177Z,80.14
2023-06-11T22:37:46.683Z,79.97
2023-06-11T22:40:14.292Z,79.19
2023-06-11T22:42:41.864Z,79.16
2023-06-11T22:45:09.583Z,78.86
2023-06-11T22:47:37.635Z,78.99
2023-06-11T22:50:06.391Z,79.05
2023-06-11T22:52:39.582Z,78.96
2023-06-11T22:55:08.404Z,79.36
2023-06-11T22:57:36.069Z,79.31
2023-06-11T23:00:04.145Z,79.41
2023-06-11T23:02:31.717Z,79.48
2023-06-11T23:04:59.316Z,79.64
2023-06-11T23:07:28.485Z,79.73
2023-06-11T23:09:56.089Z,79.81
2023-06-11T23:12:23.482Z,79.77
2023-06-11T23:14:50.954Z,79.51
2023-06-11T23:17:20.690Z,79.26
2023-06-11T23:19:48.268Z,78.88
2023-06-11T23:22:15.772Z,78.64
2023-06-11T23:24:46.074Z,78.59
2023-06-11T23:27:16.365Z,79.03
2023-06-11T23:29:44.810Z,78.55
2023-06-11T23:32:12.306Z,78.60
2023-06-11T23:34:39.809Z,79.09
2023-06-11T23:37:07.699Z,79.04
2023-06-11T23:39:35.199Z,78.74
2023-06-11T23:42:03.094Z,78.92
2023-06-11T23:44:30.636Z,79.20
2023-06-11T23:46:58.034Z,79.31
2023-06-11T23:49:25.513Z,79.38
2023-06-11T23:51:52.922Z,79.32
2023-06-11T23:54:20.360Z,79.42
2023-06-11T23:56:47.992Z,79.50
2023-06-11T23:59:15.423Z,79.26
